createdAt,value
2023-03-05T00:00:10.054Z,34.98
2023-03-05T00:01:15.432Z,34.70
2023-03-05T00:02:19.135Z,35.01
2023-03-05T00:03:22.881Z,34.43
2023-03-05T00:04:26.559Z,34.59
2023-03-05T00:05:30.210Z,35.42
2023-03-05T00:06:34.620Z,35.01
2023-03-05T00:07:38.356Z,34.96
2023-03-05T00:08:42.194Z,35.12
2023-03-05T00:09:45.778Z,35.51
2023-03-05T00:10:57.330Z,35.47
2023-03-05T00:12:02.565Z,35.30
2023-03-05T00:13:06.179Z,35.35
2023-03-05T00:14:11.196Z,34.80
2023-03-05T00:15:14.942Z,35.10
2023-03-05T00:16:18.683Z,34.49
2023-03-05T00:17:22.505Z,34.82
2023-03-05T00:18:26.286Z,34.76
2023-03-05T00:19:29.930Z,35.05
2023-03-05T00:20:36.171Z,35.28
2023-03-05T00:21:40.766Z,35.47
2023-03-05T00:22:44.435Z,35.59
2023-03-05T00:23:48.093Z,35.63
2023-03-05T00:24:52.356Z,35.52
2023-03-05T00:25:56.056Z,35.43
2023-03-05T00:27:01.354Z,35.28
2023-03-05T00:28:05.474Z,35.47
2023-03-05T00:29:10.255Z,35.35
2023-03-05T00:30:14.931Z,35.52
2023-03-05T00:31:19.078Z,35.01
2023-03-05T00:32:22.808Z,35.24
2023-03-05T00:33:26.525Z,35.39
2023-03-05T00:34:30.295Z,34.85
2023-03-05T00:35:39.554Z,35.08
2023-03-05T00:36:44.136Z,34.88
2023-03-05T00:37:47.734Z,35.18
2023-03-05T00:38:51.493Z,35.17
2023-03-05T00:39:55.169Z,35.19
2023-03-05T00:40:58.793Z,35.74
2023-03-05T00:42:04.209Z,35.64
2023-03-05T00:43:08.558Z,35.47
2023-03-05T00:44:12.452Z,35.11
2023-03-05T00:45:16.143Z,35.00
2023-03-05T00:46:19.888Z,34.91
2023-03-05T00:47:23.537Z,35.22
2023-03-05T00:48:27.338Z,34.72
2023-03-05T00:49:31.145Z,34.51
2023-03-05T00:50:34.800Z,34.73
2023-03-05T00:51:38.543Z,34.59
2023-03-05T00:52:42.188Z,34.67
2023-03-05T00:53:45.985Z,34.51
2023-03-05T00:54:49.674Z,34.27
2023-03-05T00:55:53.352Z,34.40
2023-03-05T00:56:56.979Z,34.44
2023-03-05T00:58:02.281Z,33.80
2023-03-05T00:59:06.002Z,33.93
2023-03-05T01:00:14.212Z,33.85
2023-03-05T01:01:17.962Z,34.10
2023-03-05T01:02:21.847Z,34.06
2023-03-05T01:03:25.541Z,34.13
2023-03-05T01:04:29.160Z,34.09
2023-03-05T01:05:33.019Z,33.80
2023-03-05T01:06:36.688Z,34.32
2023-03-05T01:07:40.614Z,34.11
2023-03-05T01:08:44.930Z,34.14
2023-03-05T01:09:48.634Z,33.78
2023-03-05T01:10:52.544Z,33.69
2023-03-05T01:11:56.237Z,33.55
2023-03-05T01:13:01.464Z,33.63
2023-03-05T01:14:05.157Z,33.51
2023-03-05T01:15:09.319Z,33.52
2023-03-05T01:16:13.158Z,33.77
2023-03-05T01:17:16.872Z,33.45
2023-03-05T01:18:21.455Z,33.60
2023-03-05T01:19:25.154Z,33.14
2023-03-05T01:20:28.924Z,33.40
2023-03-05T01:21:32.744Z,33.50
2023-03-05T01:22:36.452Z,33.48
2023-03-05T01:23:40.154Z,33.68
2023-03-05T01:24:43.862Z,33.81
2023-03-05T01:25:53.578Z,33.58
2023-03-05T01:26:57.358Z,33.82
2023-03-05T01:28:02.785Z,33.17
2023-03-05T01:29:06.481Z,33.05
2023-03-05T01:30:13.547Z,33.22
2023-03-05T01:31:17.227Z,32.66
2023-03-05T01:32:20.947Z,32.57
2023-03-05T01:33:24.934Z,32.85
2023-03-05T01:34:28.558Z,32.75
2023-03-05T01:35:32.347Z,32.81
2023-03-05T01:36:36.048Z,32.65
2023-03-05T01:37:39.705Z,31.81
2023-03-05T01:38:44.332Z,32.32
2023-03-05T01:39:47.975Z,31.97
2023-03-05T01:40:51.915Z,31.95
2023-03-05T01:41:55.654Z,32.09
2023-03-05T01:43:07.490Z,32.23
2023-03-05T01:44:22.059Z,32.29
2023-03-05T01:45:26.718Z,32.13
2023-03-05T01:46:35.588Z,31.87
2023-03-05T01:47:39.975Z,32.45
2023-03-05T01:48:45.281Z,32.14
2023-03-05T01:49:49.080Z,32.50
2023-03-05T01:50:52.697Z,32.01
2023-03-05T01:52:07.180Z,31.66
2023-03-05T01:53:10.840Z,31.79
2023-03-05T01:54:18.204Z,32.39
2023-03-05T01:55:24.652Z,32.07
2023-03-05T01:56:30.436Z,31.76
2023-03-05T01:57:37.276Z,31.84
2023-03-05T01:58:43.148Z,32.27
2023-03-05T01:59:51.111Z,31.62
2023-03-05T02:00:56.285Z,32.39
2023-03-05T02:02:00.498Z,31.86
2023-03-05T02:03:10.514Z,31.91
2023-03-05T02:04:17.842Z,32.27
2023-03-05T02:05:26.951Z,31.49
2023-03-05T02:06:30.978Z,31.54
2023-03-05T02:07:35.330Z,31.63
2023-03-05T02:08:39.007Z,31.84
2023-03-05T02:09:43.118Z,32.10
2023-03-05T02:10:49.120Z,32.04
2023-03-05T02:11:53.381Z,31.32
2023-03-05T02:13:01.572Z,31.71
2023-03-05T02:14:10.144Z,31.65
2023-03-05T02:15:14.270Z,30.91
2023-03-05T02:16:18.103Z,31.51
2023-03-05T02:17:21.838Z,31.26
2023-03-05T02:18:25.551Z,31.25
2023-03-05T02:19:29.285Z,31.32
2023-03-05T02:20:46.037Z,31.74
2023-03-05T02:21:51.366Z,31.87
2023-03-05T02:22:55.127Z,31.19
2023-03-05T02:23:58.771Z,31.39
2023-03-05T02:25:02.478Z,31.63
2023-03-05T02:26:08.813Z,31.44
2023-03-05T02:27:14.473Z,31.30
2023-03-05T02:28:24.095Z,30.93
2023-03-05T02:29:30.110Z,31.18
2023-03-05T02:30:33.741Z,31.54
2023-03-05T02:31:40.327Z,31.41
2023-03-05T02:32:43.967Z,30.99
2023-03-05T02:33:47.983Z,31.35
2023-03-05T02:34:51.634Z,31.44
2023-03-05T02:35:55.337Z,31.28
2023-03-05T02:37:00.653Z,31.26
2023-03-05T02:38:04.427Z,31.25
2023-03-05T02:39:08.754Z,30.96
2023-03-05T02:40:14.058Z,30.80
2023-03-05T02:41:17.993Z,30.78
2023-03-05T02:42:21.711Z,31.13
2023-03-05T02:43:25.652Z,31.21
2023-03-05T02:44:29.364Z,30.52
2023-03-05T02:45:33.074Z,31.09
2023-03-05T02:46:36.796Z,29.99
2023-03-05T02:47:40.517Z,30.36
2023-03-05T02:48:44.364Z,31.20
2023-03-05T02:49:48.006Z,31.02
2023-03-05T02:50:52.226Z,30.87
2023-03-05T02:51:56.003Z,31.10
2023-03-05T02:53:01.334Z,30.48
2023-03-05T02:54:05.266Z,30.04
2023-03-05T02:55:09.834Z,30.13
2023-03-05T02:56:13.529Z,29.92
2023-03-05T02:57:17.189Z,29.93
2023-03-05T02:58:20.960Z,30.13
2023-03-05T02:59:24.667Z,29.99
2023-03-05T03:00:28.834Z,30.31
2023-03-05T03:01:32.641Z,30.08
2023-03-05T03:02:36.296Z,29.79
2023-03-05T03:03:40.770Z,29.78
2023-03-05T03:04:45.418Z,29.25
2023-03-05T03:05:49.041Z,29.78
2023-03-05T03:06:52.785Z,29.50
2023-03-05T03:07:56.410Z,29.83
2023-03-05T03:09:01.710Z,30.00
2023-03-05T03:10:06.413Z,29.56
2023-03-05T03:11:11.608Z,29.52
2023-03-05T03:12:16.307Z,29.76
2023-03-05T03:13:19.956Z,30.00
2023-03-05T03:14:23.619Z,29.45
2023-03-05T03:15:27.334Z,29.05
2023-03-05T03:16:31.135Z,28.99
2023-03-05T03:17:36.309Z,29.76
2023-03-05T03:18:40.209Z,29.73
2023-03-05T03:19:44.630Z,28.88
2023-03-05T03:20:48.311Z,29.18
2023-03-05T03:21:52.033Z,29.38
2023-03-05T03:22:55.841Z,28.45
2023-03-05T03:24:01.240Z,28.94
2023-03-05T03:25:06.460Z,28.48
2023-03-05T03:26:10.152Z,28.09
2023-03-05T03:27:13.807Z,27.93
2023-03-05T03:28:17.692Z,28.45
2023-03-05T03:29:21.361Z,28.40
2023-03-05T03:30:25.141Z,28.76
2023-03-05T03:31:28.869Z,28.66
2023-03-05T03:32:33.362Z,28.87
2023-03-05T03:33:37.161Z,29.19
2023-03-05T03:34:40.897Z,28.73
2023-03-05T03:35:44.552Z,28.84
2023-03-05T03:36:49.681Z,28.36
2023-03-05T03:37:53.346Z,28.61
2023-03-05T03:38:57.046Z,29.08
2023-03-05T03:40:02.394Z,28.56
2023-03-05T03:41:07.488Z,28.32
2023-03-05T03:42:11.114Z,28.50
2023-03-05T03:43:14.783Z,28.41
2023-03-05T03:44:19.501Z,27.90
2023-03-05T03:45:23.381Z,28.19
2023-03-05T03:46:27.123Z,28.33
2023-03-05T03:47:30.949Z,28.64
2023-03-05T03:48:34.655Z,28.46
2023-03-05T03:49:38.270Z,27.97
2023-03-05T03:50:42.097Z,28.76
2023-03-05T03:51:46.037Z,28.82
2023-03-05T03:52:49.700Z,28.57
2023-03-05T03:53:53.421Z,28.11
2023-03-05T03:54:57.158Z,28.15
2023-03-05T03:56:02.615Z,28.40
2023-03-05T03:57:12.406Z,28.96
2023-03-05T03:58:16.215Z,28.48
2023-03-05T03:59:19.967Z,28.36
2023-03-05T04:00:23.912Z,27.88
2023-03-05T04:01:27.638Z,28.34
2023-03-05T04:02:31.361Z,27.70
2023-03-05T04:03:35.021Z,29.18
2023-03-05T04:04:38.809Z,28.21
2023-03-05T04:05:42.477Z,28.68
2023-03-05T04:06:46.103Z,28.30
2023-03-05T04:07:49.783Z,28.10
2023-03-05T04:08:53.439Z,28.79
2023-03-05T04:09:57.206Z,28.07
2023-03-05T04:11:04.210Z,27.96
2023-03-05T04:12:08.468Z,27.41
2023-03-05T04:13:12.104Z,28.20
2023-03-05T04:14:15.846Z,27.32
2023-03-05T04:15:19.858Z,27.90
2023-03-05T04:16:23.671Z,27.59
2023-03-05T04:17:27.291Z,28.08
2023-03-05T04:18:32.537Z,27.72
2023-03-05T04:19:36.290Z,27.90
2023-03-05T04:20:39.936Z,27.49
2023-03-05T04:21:43.715Z,27.71
2023-03-05T04:22:47.368Z,27.54
2023-03-05T04:23:51.019Z,27.75
2023-03-05T04:24:54.888Z,28.14
2023-03-05T04:25:58.541Z,27.61
2023-03-05T04:27:03.926Z,27.56
2023-03-05T04:28:07.817Z,27.58
2023-03-05T04:29:11.571Z,27.19
2023-03-05T04:30:15.994Z,27.72
2023-03-05T04:31:19.953Z,27.36
2023-03-05T04:32:23.707Z,27.41
2023-03-05T04:33:27.401Z,27.23
2023-03-05T04:34:31.041Z,27.82
2023-03-05T04:35:34.775Z,27.13
2023-03-05T04:36:38.383Z,27.31
2023-03-05T04:37:42.105Z,27.23
2023-03-05T04:38:45.892Z,26.85
2023-03-05T04:39:49.548Z,27.45
2023-03-05T04:40:53.351Z,27.48
2023-03-05T04:41:57.146Z,27.08
2023-03-05T04:43:02.716Z,26.80
2023-03-05T04:44:06.711Z,26.85
2023-03-05T04:45:11.179Z,27.05
2023-03-05T04:46:14.854Z,26.64
2023-03-05T04:47:19.121Z,26.45
2023-03-05T04:48:22.779Z,26.86
2023-03-05T04:49:26.533Z,26.83
2023-03-05T04:50:30.227Z,26.98
2023-03-05T04:51:33.863Z,26.50
2023-03-05T04:52:40.494Z,26.11
2023-03-05T04:53:44.154Z,25.96
2023-03-05T04:54:48.290Z,26.16
2023-03-05T04:55:54.554Z,25.57
2023-03-05T04:56:58.301Z,25.63
2023-03-05T04:58:03.896Z,26.03
2023-03-05T04:59:07.555Z,26.10
2023-03-05T05:00:13.986Z,25.86
2023-03-05T05:01:17.779Z,25.80
2023-03-05T05:02:21.488Z,25.91
2023-03-05T05:03:25.250Z,25.86
2023-03-05T05:04:28.854Z,25.83
2023-03-05T05:05:32.548Z,26.06
2023-03-05T05:06:36.271Z,26.29
2023-03-05T05:07:40.177Z,26.56
2023-03-05T05:08:44.403Z,26.24
2023-03-05T05:09:48.125Z,26.04
2023-03-05T05:11:00.251Z,25.80
2023-03-05T05:12:04.671Z,26.06
2023-03-05T05:13:09.962Z,26.09
2023-03-05T05:14:13.783Z,26.13
2023-03-05T05:15:18.105Z,25.71
2023-03-05T05:16:21.963Z,25.97
2023-03-05T05:17:25.813Z,26.05
2023-03-05T05:18:29.534Z,25.97
2023-03-05T05:19:33.577Z,26.64
2023-03-05T05:20:37.425Z,25.71
2023-03-05T05:21:41.329Z,25.64
2023-03-05T05:22:45.378Z,26.06
2023-03-05T05:23:49.888Z,25.64
2023-03-05T05:24:53.518Z,25.45
2023-03-05T05:26:01.706Z,26.31
2023-03-05T05:27:05.527Z,26.43
2023-03-05T05:28:11.965Z,25.81
2023-03-05T05:29:15.689Z,26.50
2023-03-05T05:30:19.401Z,26.07
2023-03-05T05:31:23.333Z,25.69
2023-03-05T05:32:27.082Z,25.45
2023-03-05T05:33:30.808Z,25.66
2023-03-05T05:34:34.624Z,25.37
2023-03-05T05:35:41.129Z,25.57
2023-03-05T05:36:44.834Z,25.98
2023-03-05T05:37:48.604Z,26.00
2023-03-05T05:38:52.250Z,26.08
2023-03-05T05:39:55.959Z,26.11
2023-03-05T05:41:05.481Z,26.34
2023-03-05T05:42:09.357Z,25.91
2023-03-05T05:43:14.710Z,26.47
2023-03-05T05:44:18.576Z,26.30
2023-03-05T05:45:22.259Z,26.36
2023-03-05T05:46:26.378Z,26.19
2023-03-05T05:47:30.441Z,26.40
2023-03-05T05:48:36.252Z,25.89
2023-03-05T05:49:40.358Z,25.67
2023-03-05T05:50:44.037Z,25.51
2023-03-05T05:51:47.711Z,25.66
2023-03-05T05:52:52.752Z,25.35
2023-03-05T05:53:56.541Z,25.39
2023-03-05T05:55:00.230Z,25.86
2023-03-05T05:56:06.061Z,25.60
2023-03-05T05:57:09.784Z,25.83
2023-03-05T05:58:15.132Z,25.93
2023-03-05T05:59:18.987Z,25.68
2023-03-05T06:00:23.482Z,25.80
2023-03-05T06:01:29.915Z,25.71
2023-03-05T06:02:33.542Z,25.42
2023-03-05T06:03:37.169Z,25.66
2023-03-05T06:04:40.837Z,25.49
2023-03-05T06:05:44.640Z,25.91
2023-03-05T06:06:48.345Z,25.99
2023-03-05T06:07:52.058Z,25.54
2023-03-05T06:08:56.110Z,25.50
2023-03-05T06:09:59.838Z,25.10
2023-03-05T06:11:03.529Z,25.10
2023-03-05T06:12:08.360Z,25.27
2023-03-05T06:13:12.040Z,25.12
2023-03-05T06:14:17.666Z,25.10
2023-03-05T06:15:21.397Z,25.33
2023-03-05T06:16:26.267Z,25.30
2023-03-05T06:17:31.185Z,25.37
2023-03-05T06:18:35.378Z,25.21
2023-03-05T06:19:39.159Z,25.00
2023-03-05T06:20:42.867Z,25.29
2023-03-05T06:21:46.598Z,25.04
2023-03-05T06:22:50.251Z,25.22
2023-03-05T06:23:53.936Z,25.24
2023-03-05T06:24:57.672Z,25.41
2023-03-05T06:26:01.987Z,25.18
2023-03-05T06:27:06.038Z,25.07
2023-03-05T06:28:09.732Z,24.73
2023-03-05T06:29:13.361Z,25.00
2023-03-05T06:30:19.016Z,24.97
2023-03-05T06:31:24.307Z,24.94
2023-03-05T06:32:28.058Z,25.27
2023-03-05T06:33:32.200Z,24.92
2023-03-05T06:34:35.868Z,24.98
2023-03-05T06:35:39.864Z,25.37
2023-03-05T06:36:43.666Z,24.84
2023-03-05T06:37:47.345Z,24.68
2023-03-05T06:38:53.220Z,24.90
2023-03-05T06:39:57.199Z,24.74
2023-03-05T06:41:02.625Z,24.99
2023-03-05T06:42:06.812Z,24.99
2023-03-05T06:43:10.514Z,24.72
2023-03-05T06:44:14.204Z,25.10
2023-03-05T06:45:19.633Z,24.98
2023-03-05T06:46:25.613Z,24.69
2023-03-05T06:47:29.603Z,25.19
2023-03-05T06:48:33.779Z,24.60
2023-03-05T06:49:38.219Z,25.48
2023-03-05T06:50:41.955Z,25.48
2023-03-05T06:51:45.639Z,25.23
2023-03-05T06:52:51.034Z,25.27
2023-03-05T06:53:55.323Z,24.97
2023-03-05T06:54:59.023Z,24.93
2023-03-05T06:56:03.301Z,24.61
2023-03-05T06:57:07.017Z,24.71
2023-03-05T06:58:10.783Z,24.81
2023-03-05T06:59:15.512Z,24.08
2023-03-05T07:00:21.959Z,24.51
2023-03-05T07:01:25.986Z,24.78
2023-03-05T07:02:29.683Z,24.14
2023-03-05T07:03:33.562Z,25.17
2023-03-05T07:04:37.201Z,24.91
2023-03-05T07:05:41.253Z,24.03
2023-03-05T07:06:45.284Z,24.54
2023-03-05T07:07:48.978Z,24.34
2023-03-05T07:08:55.118Z,23.72
2023-03-05T07:09:58.718Z,24.28
2023-03-05T07:11:02.501Z,24.04
2023-03-05T07:12:06.612Z,23.85
2023-03-05T07:13:11.082Z,24.56
2023-03-05T07:14:14.733Z,24.10
2023-03-05T07:15:20.288Z,24.02
2023-03-05T07:16:26.005Z,24.63
2023-03-05T07:17:29.690Z,24.15
2023-03-05T07:18:33.548Z,24.04
2023-03-05T07:19:38.780Z,23.81
2023-03-05T07:20:42.618Z,24.17
2023-03-05T07:21:46.368Z,24.63
2023-03-05T07:22:49.997Z,24.05
2023-03-05T07:23:55.366Z,23.82
2023-03-05T07:24:59.078Z,24.01
2023-03-05T07:26:03.635Z,23.89
2023-03-05T07:27:07.550Z,23.53
2023-03-05T07:28:11.229Z,24.00
2023-03-05T07:29:14.874Z,23.94
2023-03-05T07:30:20.654Z,24.71
2023-03-05T07:31:25.786Z,24.30
2023-03-05T07:32:29.627Z,23.69
2023-03-05T07:33:33.864Z,23.97
2023-03-05T07:34:39.125Z,23.77
2023-03-05T07:35:42.931Z,24.51
2023-03-05T07:36:46.708Z,23.98
2023-03-05T07:37:50.464Z,23.66
2023-03-05T07:38:54.555Z,23.99
2023-03-05T07:39:58.306Z,23.85
2023-03-05T07:41:04.360Z,24.02
2023-03-05T07:42:08.375Z,24.08
2023-03-05T07:43:12.067Z,23.55
2023-03-05T07:44:15.743Z,23.62
2023-03-05T07:45:21.070Z,23.99
2023-03-05T07:46:28.684Z,23.72
2023-03-05T07:47:32.565Z,24.06
2023-03-05T07:48:36.539Z,23.41
2023-03-05T07:49:40.129Z,23.73
2023-03-05T07:50:43.940Z,24.34
2023-03-05T07:51:47.653Z,23.72
2023-03-05T07:52:51.457Z,23.62
2023-03-05T07:54:00.551Z,24.02
2023-03-05T07:55:04.377Z,23.76
2023-03-05T07:56:08.900Z,23.43
2023-03-05T07:57:13.176Z,23.56
2023-03-05T07:58:16.859Z,23.76
2023-03-05T07:59:20.670Z,23.81
2023-03-05T08:00:25.980Z,23.67
2023-03-05T08:01:30.022Z,23.89
2023-03-05T08:02:33.762Z,23.53
2023-03-05T08:03:37.452Z,23.28
2023-03-05T08:04:41.344Z,23.18
2023-03-05T08:05:45.223Z,23.57
2023-03-05T08:06:49.176Z,23.49
2023-03-05T08:07:52.869Z,23.53
2023-03-05T08:08:56.692Z,23.32
2023-03-05T08:10:00.276Z,23.45
2023-03-05T08:11:05.765Z,24.02
2023-03-05T08:12:10.194Z,23.64
2023-03-05T08:13:14.118Z,23.75
2023-03-05T08:14:17.898Z,23.71
2023-03-05T08:15:21.576Z,24.11
2023-03-05T08:16:28.490Z,24.16
2023-03-05T08:17:32.672Z,23.85
2023-03-05T08:18:37.632Z,24.21
2023-03-05T08:19:42.573Z,24.19
2023-03-05T08:20:47.725Z,23.47
2023-03-05T08:21:55.011Z,23.71
2023-03-05T08:23:01.280Z,23.76
2023-03-05T08:24:07.241Z,23.16
2023-03-05T08:25:11.225Z,23.41
2023-03-05T08:26:16.632Z,23.03
2023-03-05T08:27:20.326Z,23.02
2023-03-05T08:28:24.209Z,22.75
2023-03-05T08:29:28.766Z,23.33
2023-03-05T08:30:32.864Z,22.94
2023-03-05T08:31:39.145Z,23.36
2023-03-05T08:32:43.087Z,23.16
2023-03-05T08:33:46.934Z,22.75
2023-03-05T08:34:50.596Z,23.04
2023-03-05T08:35:54.336Z,23.30
2023-03-05T08:36:58.013Z,22.94
2023-03-05T08:38:01.761Z,22.51
2023-03-05T08:39:05.590Z,22.87
2023-03-05T08:40:10.849Z,23.17
2023-03-05T08:41:15.182Z,23.18
2023-03-05T08:42:19.053Z,23.07
2023-03-05T08:43:22.700Z,23.22
2023-03-05T08:44:26.317Z,23.51
2023-03-05T08:45:30.108Z,23.04
2023-03-05T08:46:34.000Z,23.10
2023-03-05T08:47:39.438Z,23.19
2023-03-05T08:48:43.614Z,22.70
2023-03-05T08:49:47.295Z,22.92
2023-03-05T08:50:50.977Z,23.08
2023-03-05T08:51:54.656Z,23.15
2023-03-05T08:52:58.363Z,23.56
2023-03-05T08:54:02.180Z,22.83
2023-03-05T08:55:06.353Z,22.65
2023-03-05T08:56:10.307Z,22.97
2023-03-05T08:57:13.956Z,22.88
2023-03-05T08:58:17.702Z,23.11
2023-03-05T08:59:21.449Z,23.08
2023-03-05T09:00:25.249Z,22.60
2023-03-05T09:01:28.963Z,23.17
2023-03-05T09:02:32.759Z,23.46
2023-03-05T09:03:38.223Z,23.28
2023-03-05T09:04:42.104Z,23.52
2023-03-05T09:05:46.117Z,23.34
2023-03-05T09:06:49.867Z,23.27
2023-03-05T09:07:53.513Z,23.31
2023-03-05T09:08:57.162Z,23.60
2023-03-05T09:10:00.885Z,22.90
2023-03-05T09:11:05.927Z,23.12
2023-03-05T09:12:12.151Z,22.84
2023-03-05T09:13:15.985Z,23.49
2023-03-05T09:14:19.744Z,23.68
2023-03-05T09:15:23.450Z,23.07
2023-03-05T09:16:27.227Z,23.39
2023-03-05T09:17:30.990Z,23.18
2023-03-05T09:18:37.943Z,23.22
2023-03-05T09:19:43.402Z,23.22
2023-03-05T09:20:47.119Z,23.21
2023-03-05T09:21:51.090Z,23.13
2023-03-05T09:22:55.244Z,23.19
2023-03-05T09:23:58.919Z,23.32
2023-03-05T09:25:02.879Z,23.13
2023-03-05T09:26:07.654Z,23.17
2023-03-05T09:27:11.326Z,23.28
2023-03-05T09:28:15.102Z,23.42
2023-03-05T09:29:18.736Z,23.56
2023-03-05T09:30:22.887Z,23.73
2023-03-05T09:31:26.721Z,23.45
2023-03-05T09:32:30.614Z,23.46
2023-03-05T09:33:34.952Z,23.78
2023-03-05T09:34:38.904Z,23.75
2023-03-05T09:35:44.367Z,23.56
2023-03-05T09:36:48.260Z,23.51
2023-03-05T09:37:52.056Z,23.18
2023-03-05T09:38:56.060Z,23.25
2023-03-05T09:39:59.864Z,23.55
2023-03-05T09:41:07.812Z,23.48
2023-03-05T09:42:30.505Z,23.43
2023-03-05T09:43:46.320Z,23.55
2023-03-05T09:44:57.122Z,23.16
2023-03-05T09:46:14.378Z,23.11
2023-03-05T09:47:34.645Z,23.50
2023-03-05T09:48:50.804Z,23.73
2023-03-05T09:50:00.124Z,23.83
2023-03-05T09:51:11.960Z,23.30
2023-03-05T09:52:20.729Z,23.63
2023-03-05T09:53:35.973Z,23.32
2023-03-05T09:54:42.682Z,23.45
2023-03-05T09:55:48.006Z,23.56
2023-03-05T09:56:55.449Z,23.61
2023-03-05T09:58:05.175Z,23.71
2023-03-05T09:59:21.667Z,23.75
2023-03-05T10:00:34.181Z,24.06
2023-03-05T10:01:40.575Z,23.94
2023-03-05T10:02:51.238Z,23.95
2023-03-05T10:03:58.808Z,24.25
2023-03-05T10:05:13.710Z,23.96
2023-03-05T10:06:23.780Z,23.88
2023-03-05T10:07:31.289Z,23.75
2023-03-05T10:08:46.333Z,23.91
2023-03-05T10:09:56.399Z,23.55
2023-03-05T10:11:05.941Z,23.50
2023-03-05T10:12:19.751Z,23.84
2023-03-05T10:13:27.690Z,24.16
2023-03-05T10:14:32.973Z,24.46
2023-03-05T10:15:42.337Z,24.21
2023-03-05T10:17:18.217Z,24.22
2023-03-05T10:18:32.348Z,24.04
2023-03-05T10:19:58.238Z,23.87
2023-03-05T10:21:04.467Z,23.96
2023-03-05T10:22:18.948Z,23.86
2023-03-05T10:23:51.378Z,23.95
2023-03-05T10:25:15.265Z,24.18
2023-03-05T10:26:36.524Z,24.44
2023-03-05T10:27:47.998Z,24.24
2023-03-05T10:29:03.166Z,24.22
2023-03-05T10:30:20.044Z,24.57
2023-03-05T10:31:43.734Z,24.24
2023-03-05T10:32:56.447Z,24.40
2023-03-05T10:34:23.253Z,24.35
2023-03-05T10:35:46.179Z,24.83
2023-03-05T10:37:05.134Z,24.86
2023-03-05T10:38:29.551Z,24.77
2023-03-05T10:40:02.358Z,25.06
2023-03-05T10:41:15.668Z,24.59
2023-03-05T10:42:31.002Z,24.48
2023-03-05T10:43:41.876Z,24.66
2023-03-05T10:44:49.014Z,24.56
2023-03-05T10:45:58.194Z,24.64
2023-03-05T10:47:03.868Z,25.29
2023-03-05T10:48:13.677Z,24.95
2023-03-05T10:49:21.778Z,25.24
2023-03-05T10:50:27.842Z,25.82
2023-03-05T10:51:37.222Z,25.50
2023-03-05T10:52:44.832Z,25.01
2023-03-05T10:53:56.842Z,25.08
2023-03-05T10:55:03.281Z,25.01
2023-03-05T10:56:07.820Z,25.01
2023-03-05T10:57:19.030Z,24.99
2023-03-05T10:58:24.712Z,25.17
2023-03-05T10:59:29.464Z,25.26
2023-03-05T11:00:33.493Z,25.71
2023-03-05T11:01:37.556Z,25.41
2023-03-05T11:02:56.835Z,25.51
2023-03-05T11:04:02.596Z,25.21
2023-03-05T11:05:26.936Z,25.86
2023-03-05T11:06:38.036Z,26.02
2023-03-05T11:07:41.771Z,25.69
2023-03-05T11:08:45.549Z,25.88
2023-03-05T11:10:04.975Z,26.38
2023-03-05T11:11:16.128Z,26.72
2023-03-05T11:12:21.261Z,25.91
2023-03-05T11:13:28.708Z,26.30
2023-03-05T11:14:33.882Z,26.19
2023-03-05T11:15:37.661Z,26.21
2023-03-05T11:16:48.612Z,26.22
2023-03-05T11:18:16.686Z,26.40
2023-03-05T11:19:25.277Z,26.39
2023-03-05T11:20:34.621Z,26.38
2023-03-05T11:21:38.344Z,26.54
2023-03-05T11:22:42.080Z,26.64
2023-03-05T11:23:45.937Z,26.55
2023-03-05T11:25:13.877Z,26.40
2023-03-05T11:26:23.640Z,26.65
2023-03-05T11:27:33.305Z,26.96
2023-03-05T11:28:39.498Z,26.79
2023-03-05T11:29:49.935Z,27.32
2023-03-05T11:30:59.771Z,28.28
2023-03-05T11:32:17.764Z,29.21
2023-03-05T11:33:23.581Z,29.58
2023-03-05T11:34:32.070Z,30.84
2023-03-05T11:35:38.596Z,29.74
2023-03-05T11:36:59.619Z,30.79
2023-03-05T11:38:07.317Z,30.83
2023-03-05T11:39:16.758Z,31.07
2023-03-05T11:40:25.735Z,30.35
2023-03-05T11:41:36.957Z,30.39
2023-03-05T11:42:41.951Z,29.63
2023-03-05T11:43:45.815Z,31.04
2023-03-05T11:44:52.279Z,30.24
2023-03-05T11:46:02.707Z,31.41
2023-03-05T11:47:18.817Z,31.32
2023-03-05T11:48:27.614Z,30.88
2023-03-05T11:49:35.102Z,31.12
2023-03-05T11:50:42.040Z,30.33
2023-03-05T11:51:49.745Z,30.25
2023-03-05T11:52:56.487Z,31.48
2023-03-05T11:54:08.477Z,30.61
2023-03-05T11:55:16.860Z,31.55
2023-03-05T11:56:26.547Z,31.12
2023-03-05T11:57:33.961Z,31.21
2023-03-05T11:58:44.822Z,31.10
2023-03-05T11:59:49.314Z,30.69
2023-03-05T12:00:53.647Z,31.04
2023-03-05T12:01:58.566Z,30.20
2023-03-05T12:03:05.928Z,30.20
2023-03-05T12:04:09.790Z,30.87
2023-03-05T12:05:16.994Z,30.70
2023-03-05T12:06:29.135Z,30.94
2023-03-05T12:07:39.024Z,31.48
2023-03-05T12:08:45.954Z,30.75
2023-03-05T12:09:51.844Z,30.22
2023-03-05T12:10:56.453Z,31.24
2023-03-05T12:12:10.332Z,30.88
2023-03-05T12:13:23.396Z,31.67
2023-03-05T12:14:36.096Z,31.32
2023-03-05T12:15:50.570Z,31.49
2023-03-05T12:16:59.894Z,31.76
2023-03-05T12:18:19.297Z,31.97
2023-03-05T12:19:39.572Z,31.09
2023-03-05T12:20:50.224Z,31.58
2023-03-05T12:21:55.365Z,30.60
2023-03-05T12:22:59.261Z,30.73
2023-03-05T12:24:05.166Z,31.15
2023-03-05T12:25:28.675Z,31.82
2023-03-05T12:26:57.901Z,31.22
2023-03-05T12:28:03.856Z,31.66
2023-03-05T12:29:28.932Z,31.84
2023-03-05T12:30:58.011Z,32.83
2023-03-05T12:32:02.463Z,32.48
2023-03-05T12:33:07.457Z,32.04
2023-03-05T12:34:58.140Z,32.16
2023-03-05T12:36:39.640Z,32.06
2023-03-05T12:38:26.443Z,31.74
2023-03-05T12:39:49.784Z,31.91
2023-03-05T12:40:53.469Z,30.87
2023-03-05T12:41:57.219Z,31.36
2023-03-05T12:43:03.855Z,31.58
2023-03-05T12:44:17.921Z,31.88
2023-03-05T12:45:42.354Z,31.91
2023-03-05T12:46:46.738Z,31.75
2023-03-05T12:48:28.533Z,32.44
2023-03-05T12:49:39.552Z,31.74
2023-03-05T12:50:51.140Z,31.95
2023-03-05T12:51:56.316Z,32.03
2023-03-05T12:53:11.385Z,31.75
2023-03-05T12:54:27.865Z,32.09
2023-03-05T12:55:33.741Z,32.03
2023-03-05T12:56:45.682Z,31.70
2023-03-05T12:57:53.427Z,31.67
2023-03-05T12:59:01.756Z,31.73
2023-03-05T13:00:11.673Z,32.78
2023-03-05T13:01:33.088Z,32.25
2023-03-05T13:02:40.600Z,32.44
2023-03-05T13:03:49.174Z,33.22
2023-03-05T13:04:58.342Z,32.87
2023-03-05T13:06:02.662Z,32.71
2023-03-05T13:07:14.354Z,33.05
2023-03-05T13:08:23.260Z,32.78
2023-03-05T13:09:30.737Z,32.14
2023-03-05T13:10:34.471Z,31.88
2023-03-05T13:11:39.829Z,31.80
2023-03-05T13:12:51.840Z,32.53
2023-03-05T13:13:58.051Z,32.67
2023-03-05T13:15:06.044Z,32.75
2023-03-05T13:16:21.698Z,32.77
2023-03-05T13:17:41.660Z,33.07
2023-03-05T13:18:48.667Z,32.38
2023-03-05T13:19:53.059Z,32.57
2023-03-05T13:21:05.329Z,32.55
2023-03-05T13:22:12.967Z,32.61
2023-03-05T13:23:19.749Z,31.92
2023-03-05T13:24:23.474Z,32.32
2023-03-05T13:25:27.320Z,32.37
2023-03-05T13:26:36.887Z,32.18
2023-03-05T13:27:40.706Z,32.19
2023-03-05T13:28:45.354Z,31.86
2023-03-05T13:29:59.600Z,32.96
2023-03-05T13:31:05.669Z,32.55
2023-03-05T13:32:29.205Z,32.24
2023-03-05T13:33:34.933Z,32.19
2023-03-05T13:34:47.409Z,31.87
2023-03-05T13:35:52.994Z,32.59
2023-03-05T13:37:01.038Z,32.46
2023-03-05T13:38:04.860Z,32.42
2023-03-05T13:39:08.672Z,31.90
2023-03-05T13:40:21.727Z,32.68
2023-03-05T13:41:27.559Z,32.70
2023-03-05T13:42:32.136Z,32.71
2023-03-05T13:43:42.739Z,32.99
2023-03-05T13:44:55.265Z,33.17
2023-03-05T13:46:00.757Z,32.90
2023-03-05T13:47:17.849Z,33.12
2023-03-05T13:48:21.648Z,32.35
2023-03-05T13:49:26.645Z,33.00
2023-03-05T13:50:32.471Z,33.50
2023-03-05T13:51:46.551Z,33.10
2023-03-05T13:52:59.568Z,33.33
2023-03-05T13:54:03.353Z,33.59
2023-03-05T13:55:17.008Z,33.09
2023-03-05T13:56:21.885Z,33.29
2023-03-05T13:57:40.115Z,33.98
2023-03-05T13:58:46.868Z,32.91
2023-03-05T13:59:53.887Z,33.59
2023-03-05T14:01:15.950Z,33.62
2023-03-05T14:02:21.428Z,32.95
2023-03-05T14:03:30.061Z,33.24
2023-03-05T14:04:40.988Z,32.51
2023-03-05T14:05:45.487Z,32.99
2023-03-05T14:06:52.972Z,32.77
2023-03-05T14:07:56.912Z,32.46
2023-03-05T14:09:07.099Z,32.59
2023-03-05T14:10:31.368Z,33.26
2023-03-05T14:11:35.783Z,33.33
2023-03-05T14:12:42.207Z,33.27
2023-03-05T14:13:47.463Z,33.04
2023-03-05T14:14:51.696Z,33.04
2023-03-05T14:16:15.901Z,33.62